HomeShort term forecast

Short term forecast

Graphical weather forecast for the next 48 hours for Montreal:
Short term forecast
This weather forecast is automatically refreshed every 3 hours.

Hourly Experimental Forecast for the next 48 hours

Overall summary: Rain starting later this morning, continuing until tomorrow morning.

 Date & Hour   Temp   Feel   Baro   Hum   Speed & Bearing   Wind Gust   Precip.%   Precip.   Visibility   Cloud cover   Conditions 
 08/08/2022 - 06:00  16.8°C  17.1°C  1014.9 hPa  96%  16.9 km/h   28.4 km/h  32%  0.08 mm/h  13.0km  100%  Possible Drizzle 
 08/08/2022 - 07:00  16.8°C  17.0°C  1014.9 hPa  97%  14.4 km/h   23.6 km/h  32%  0.68 mm/h  13.6km  100%  Possible Light Rain 
 08/08/2022 - 08:00  16.2°C  16.6°C  1015.0 hPa  100%  14.9 km/h   27.5 km/h  40%  1.28 mm/h  15.3km  100%  Rain 
 08/08/2022 - 09:00  15.8°C  16.2°C  1015.0 hPa  100%  14.6 km/h   26.4 km/h  53%  1.53 mm/h  13.3km  100%  Rain 
 08/08/2022 - 10:00  15.5°C  16.0°C  1014.8 hPa  100%  15.2 km/h   28.2 km/h  59%  1.55 mm/h  15.2km  100%  Rain 
 08/08/2022 - 11:00  15.5°C  15.9°C  1014.5 hPa  100%  14.6 km/h   27.0 km/h  61%  1.86 mm/h  12.7km  100%  Rain 
 08/08/2022 - 12:00  15.7°C  16.1°C  1014.2 hPa  100%  15.2 km/h   26.2 km/h  61%  1.57 mm/h  12.5km  100%  Rain 
 08/08/2022 - 13:00  15.9°C  16.2°C  1013.8 hPa  100%  15.6 km/h   26.4 km/h  60%  1.04 mm/h  12.5km  100%  Rain 
 08/08/2022 - 14:00  16.1°C  16.4°C  1013.5 hPa  100%  15.4 km/h   25.5 km/h  62%  1.28 mm/h  11.7km  100%  Rain 
 08/08/2022 - 15:00  16.2°C  16.5°C  1013.0 hPa  100%  16.1 km/h   25.9 km/h  55%  0.71 mm/h  11.7km  100%  Possible Light Rain 
 08/08/2022 - 16:00  16.1°C  16.4°C  1012.4 hPa  100%  15.9 km/h   26.7 km/h  60%  1.09 mm/h  11.5km  100%  Rain 
 08/08/2022 - 17:00  16.1°C  16.3°C  1011.9 hPa  96%  16.2 km/h   28.8 km/h  62%  1.35 mm/h  12.1km  100%  Rain 
 08/08/2022 - 18:00  16.2°C  16.3°C  1011.4 hPa  93%  15.6 km/h   28.5 km/h  59%  0.97 mm/h  12.3km  100%  Rain 
 08/08/2022 - 19:00  16.1°C  16.2°C  1011.0 hPa  90%  14.9 km/h   25.9 km/h  64%  0.98 mm/h  12.8km  100%  Rain 
 08/08/2022 - 20:00  17.2°C  17.3°C  1009.6 hPa  89%  12.8 km/h   18.5 km/h  60%  1.23 mm/h  12.3km  96%  Rain 
 08/08/2022 - 21:00  17.5°C  17.6°C  1009.5 hPa  88%  13.2 km/h   19.1 km/h  57%  1.27 mm/h  12.9km  94%  Rain 
 08/08/2022 - 22:00  17.3°C  17.3°C  1009.4 hPa  87%  13.9 km/h   21.5 km/h  47%  0.41 mm/h  13.7km  92%  Possible Light Rain 
 08/08/2022 - 23:00  16.9°C  16.9°C  1009.3 hPa  86%  14.7 km/h   25.4 km/h  43%  0.49 mm/h  13.8km  90%  Possible Light Rain 
 09/08/2022 - 00:00  16.7°C  16.7°C  1009.2 hPa  86%  13.6 km/h   24.9 km/h  32%  0.37 mm/h  14.4km  89%  Possible Light Rain 
 09/08/2022 - 01:00  16.7°C  16.7°C  1009.0 hPa  87%  12.9 km/h   25.5 km/h  24%  0.36 mm/h  16.1km  89%  Overcast 
 09/08/2022 - 02:00  15.9°C  15.9°C  1009.7 hPa  88%  13.4 km/h   29.0 km/h  24%  0.92 mm/h  16.1km  98%  Overcast 
 09/08/2022 - 03:00  15.5°C  15.5°C  1009.8 hPa  92%  13.6 km/h   29.5 km/h  22%  1.26 mm/h  16.1km  99%  Overcast 
 09/08/2022 - 04:00  15.1°C  15.2°C  1009.7 hPa  95%  14.2 km/h   30.4 km/h  20%  0.84 mm/h  16.1km  98%  Overcast 
 09/08/2022 - 05:00  15.1°C  15.2°C  1009.7 hPa  97%  14.1 km/h   29.4 km/h  21%  0.51 mm/h  14.5km  98%  Overcast 
 09/08/2022 - 06:00  15.1°C  15.2°C  1010.3 hPa  99%  14.1 km/h   29.2 km/h  17%  0.48 mm/h  16.0km  98%  Overcast 
 09/08/2022 - 07:00  15.2°C  15.4°C  1011.0 hPa  100%  14.0 km/h   28.4 km/h  15%  0.34 mm/h  16.1km  97%  Overcast 
 09/08/2022 - 08:00  15.8°C  16.1°C  1011.6 hPa  100%  15.2 km/h   34.6 km/h  15%  0.21 mm/h  16.1km  92%  Overcast 
 09/08/2022 - 09:00  16.1°C  16.5°C  1012.1 hPa  100%  16.0 km/h   35.0 km/h  11%  0.13 mm/h  16.1km  94%  Overcast 
 09/08/2022 - 10:00  16.4°C  16.7°C  1012.7 hPa  100%  16.7 km/h   33.6 km/h  11%  0.10 mm/h  16.1km  95%  Overcast 
 09/08/2022 - 11:00  16.9°C  17.3°C  1013.3 hPa  100%  17.0 km/h   31.9 km/h  10%  0.07 mm/h  16.1km  96%  Overcast 
 09/08/2022 - 12:00  17.8°C  18.1°C  1013.7 hPa  94%  17.3 km/h   30.1 km/h  4%  0.03 mm/h  16.1km  97%  Overcast 
 09/08/2022 - 13:00  18.6°C  18.8°C  1014.1 hPa  89%  17.0 km/h   28.8 km/h  4%  0.03 mm/h  16.1km  99%  Overcast 
 09/08/2022 - 14:00  18.6°C  18.7°C  1015.3 hPa  86%  14.8 km/h   23.2 km/h  4%  0.02 mm/h  16.1km  100%  Overcast 
 09/08/2022 - 15:00  19.6°C  19.7°C  1015.6 hPa  81%  14.0 km/h   21.5 km/h  0%  --  16.1km  100%  Overcast 
 09/08/2022 - 16:00  20.5°C  20.6°C  1015.8 hPa  77%  13.3 km/h   20.7 km/h  0%  --  16.1km  100%  Overcast 
 09/08/2022 - 17:00  21.0°C  21.0°C  1016.1 hPa  73%  12.5 km/h   20.2 km/h  0%  --  16.1km  99%  Overcast 
 09/08/2022 - 18:00  20.5°C  20.5°C  1016.4 hPa  72%  11.6 km/h   20.8 km/h  0%  --  16.1km  99%  Overcast 
 09/08/2022 - 19:00  19.9°C  19.9°C  1016.8 hPa  72%  10.4 km/h   20.6 km/h  0%  --  16.1km  97%  Overcast 
 09/08/2022 - 20:00  19.1°C  19.1°C  1016.9 hPa  73%  8.9 km/h   20.2 km/h  0%  --  16.1km  84%  Mostly Cloudy 
 09/08/2022 - 21:00  18.6°C  18.6°C  1017.4 hPa  74%  8.5 km/h   20.8 km/h  0%  --  16.1km  68%  Mostly Cloudy 
 09/08/2022 - 22:00  17.9°C  17.9°C  1017.6 hPa  75%  8.6 km/h   21.5 km/h  0%  --  16.1km  66%  Mostly Cloudy 
 09/08/2022 - 23:00  17.4°C  17.4°C  1017.7 hPa  76%  8.8 km/h   21.9 km/h  0%  --  16.1km  64%  Mostly Cloudy 
 10/08/2022 - 00:00  17.1°C  17.1°C  1017.8 hPa  77%  8.7 km/h   21.1 km/h  0%  --  16.1km  64%  Mostly Cloudy 
 10/08/2022 - 01:00  16.8°C  16.8°C  1017.7 hPa  78%  8.7 km/h   19.6 km/h  0%  --  16.1km  66%  Mostly Cloudy 
 10/08/2022 - 02:00  16.4°C  16.4°C  1017.6 hPa  81%  8.8 km/h   19.0 km/h  0%  --  16.1km  54%  Partly Cloudy 
 10/08/2022 - 03:00  16.0°C  16.0°C  1017.7 hPa  83%  8.7 km/h   18.3 km/h  0%  --  16.1km  57%  Partly Cloudy 
 10/08/2022 - 04:00  15.5°C  15.5°C  1017.9 hPa  85%  8.8 km/h   17.8 km/h  0%  --  16.1km  61%  Mostly Cloudy 
 10/08/2022 - 05:00  15.2°C  15.2°C  1018.0 hPa  88%  8.3 km/h   16.2 km/h  0%  --  16.1km  64%  Mostly Cloudy 

 

Past weather and reports

Past weatherFind in this section the past weather conditions, weather archive, graphics, reports and statistics.

Current conditions

Current weather condition for MontrealAll you need to know about the current weather conditions for Montreal. Weather data is updated every 10 minutes.

Weather forecast

Current Montreal weatherSince 2004, celinium.com website has provided accurate weather forecast for Montreal's island.